sensor_id;sensor_type;location;lat;lon;timestamp;P1;durP1;ratioP1;P2;durP2;ratioP2
7669;SDS011;3877;42.562;27.636;2023-11-19T05:51:23;5.63;;;4.20;;
7669;SDS011;3877;42.562;27.636;2023-11-19T05:53:51;5.57;;;4.30;;
7669;SDS011;3877;42.562;27.636;2023-11-19T05:56:17;8.07;;;5.30;;
7669;SDS011;3877;42.562;27.636;2023-11-19T05:58:47;6.63;;;4.17;;
7669;SDS011;3877;42.562;27.636;2023-11-19T06:01:14;6.13;;;4.70;;
7669;SDS011;3877;42.562;27.636;2023-11-19T06:03:41;7.20;;;4.40;;
7669;SDS011;3877;42.562;27.636;2023-11-19T06:06:12;6.77;;;4.00;;
7669;SDS011;3877;42.562;27.636;2023-11-19T06:08:41;4.70;;;3.77;;
7669;SDS011;3877;42.562;27.636;2023-11-19T06:11:09;5.47;;;3.60;;
7669;SDS011;3877;42.562;27.636;2023-11-19T06:13:40;5.83;;;4.03;;
7669;SDS011;3877;42.562;27.636;2023-11-19T06:16:08;6.03;;;4.57;;
7669;SDS011;3877;42.562;27.636;2023-11-19T06:18:36;7.40;;;5.20;;
7669;SDS011;3877;42.562;27.636;2023-11-19T06:21:03;9.67;;;5.10;;
7669;SDS011;3877;42.562;27.636;2023-11-19T06:23:30;7.43;;;4.47;;
7669;SDS011;3877;42.562;27.636;2023-11-19T06:25:58;6.90;;;4.00;;
7669;SDS011;3877;42.562;27.636;2023-11-19T06:28:25;8.23;;;5.13;;
7669;SDS011;3877;42.562;27.636;2023-11-19T06:30:52;5.10;;;3.80;;
7669;SDS011;3877;42.562;27.636;2023-11-19T06:33:19;5.87;;;4.07;;
7669;SDS011;3877;42.562;27.636;2023-11-19T06:35:46;6.67;;;4.67;;
7669;SDS011;3877;42.562;27.636;2023-11-19T06:38:13;4.07;;;3.07;;
7669;SDS011;3877;42.562;27.636;2023-11-19T06:40:39;5.87;;;4.50;;
7669;SDS011;3877;42.562;27.636;2023-11-19T06:43:08;6.63;;;4.40;;
7669;SDS011;3877;42.562;27.636;2023-11-19T06:45:35;5.97;;;4.30;;
7669;SDS011;3877;42.562;27.636;2023-11-19T06:48:03;6.43;;;4.40;;
7669;SDS011;3877;42.562;27.636;2023-11-19T06:50:30;6.97;;;4.83;;
7669;SDS011;3877;42.562;27.636;2023-11-19T06:52:57;7.73;;;4.07;;
7669;SDS011;3877;42.562;27.636;2023-11-19T06:55:24;4.73;;;3.70;;
7669;SDS011;3877;42.562;27.636;2023-11-19T06:57:50;7.47;;;3.87;;
7669;SDS011;3877;42.562;27.636;2023-11-19T07:00:19;6.27;;;4.77;;
7669;SDS011;3877;42.562;27.636;2023-11-19T07:02:46;6.77;;;4.67;;
7669;SDS011;3877;42.562;27.636;2023-11-19T07:05:13;6.10;;;4.87;;
7669;SDS011;3877;42.562;27.636;2023-11-19T07:07:40;6.47;;;4.93;;
7669;SDS011;3877;42.562;27.636;2023-11-19T07:10:07;6.93;;;5.47;;
7669;SDS011;3877;42.562;27.636;2023-11-19T07:12:34;5.83;;;4.37;;
7669;SDS011;3877;42.562;27.636;2023-11-19T07:15:01;7.00;;;4.47;;
7669;SDS011;3877;42.562;27.636;2023-11-19T07:17:30;5.17;;;3.90;;
7669;SDS011;3877;42.562;27.636;2023-11-19T07:19:57;4.30;;;3.77;;
7669;SDS011;3877;42.562;27.636;2023-11-19T07:22:24;5.23;;;3.97;;
7669;SDS011;3877;42.562;27.636;2023-11-19T07:24:51;7.07;;;4.40;;
7669;SDS011;3877;42.562;27.636;2023-11-19T07:27:18;6.20;;;4.13;;
7669;SDS011;3877;42.562;27.636;2023-11-19T07:29:45;6.47;;;4.37;;
7669;SDS011;3877;42.562;27.636;2023-11-19T07:32:13;5.87;;;3.67;;
7669;SDS011;3877;42.562;27.636;2023-11-19T07:34:41;5.23;;;3.67;;
7669;SDS011;3877;42.562;27.636;2023-11-19T07:37:09;6.53;;;4.43;;
7669;SDS011;3877;42.562;27.636;2023-11-19T07:39:36;7.93;;;3.70;;
7669;SDS011;3877;42.562;27.636;2023-11-19T07:42:06;6.03;;;4.63;;
7669;SDS011;3877;42.562;27.636;2023-11-19T07:44:33;4.20;;;3.60;;
7669;SDS011;3877;42.562;27.636;2023-11-19T07:47:00;5.50;;;3.53;;
7669;SDS011;3877;42.562;27.636;2023-11-19T07:49:26;7.20;;;3.60;;
7669;SDS011;3877;42.562;27.636;2023-11-19T07:51:55;4.63;;;3.27;;
7669;SDS011;3877;42.562;27.636;2023-11-19T07:54:22;3.83;;;3.20;;
7669;SDS011;3877;42.562;27.636;2023-11-19T07:56:49;6.50;;;3.00;;
7669;SDS011;3877;42.562;27.636;2023-11-19T07:59:16;5.47;;;3.20;;
7669;SDS011;3877;42.562;27.636;2023-11-19T08:01:43;4.70;;;3.43;;
7669;SDS011;3877;42.562;27.636;2023-11-19T08:04:10;6.30;;;3.57;;
7669;SDS011;3877;42.562;27.636;2023-11-19T08:06:37;5.90;;;4.20;;
7669;SDS011;3877;42.562;27.636;2023-11-19T08:09:08;4.87;;;3.43;;
7669;SDS011;3877;42.562;27.636;2023-11-19T08:11:39;6.27;;;3.37;;
7669;SDS011;3877;42.562;27.636;2023-11-19T08:14:06;4.77;;;3.53;;
7669;SDS011;3877;42.562;27.636;2023-11-19T08:16:32;4.57;;;3.30;;
7669;SDS011;3877;42.562;27.636;2023-11-19T08:18:59;6.40;;;3.87;;
7669;SDS011;3877;42.562;27.636;2023-11-19T08:21:26;4.40;;;3.47;;
7669;SDS011;3877;42.562;27.636;2023-11-19T08:23:53;8.23;;;3.43;;
7669;SDS011;3877;42.562;27.636;2023-11-19T08:26:22;5.73;;;4.50;;
7669;SDS011;3877;42.562;27.636;2023-11-19T08:28:49;5.77;;;3.70;;
7669;SDS011;3877;42.562;27.636;2023-11-19T08:31:17;6.83;;;3.73;;
7669;SDS011;3877;42.562;27.636;2023-11-19T08:33:44;7.00;;;4.13;;
7669;SDS011;3877;42.562;27.636;2023-11-19T08:36:15;4.93;;;3.50;;
7669;SDS011;3877;42.562;27.636;2023-11-19T08:38:42;10.40;;;4.27;;
7669;SDS011;3877;42.562;27.636;2023-11-19T08:41:09;5.43;;;3.90;;
7669;SDS011;3877;42.562;27.636;2023-11-19T08:43:37;6.60;;;5.13;;
7669;SDS011;3877;42.562;27.636;2023-11-19T08:46:09;7.20;;;4.10;;
7669;SDS011;3877;42.562;27.636;2023-11-19T08:48:35;7.10;;;4.10;;
7669;SDS011;3877;42.562;27.636;2023-11-19T08:51:02;8.10;;;4.90;;
7669;SDS011;3877;42.562;27.636;2023-11-19T08:53:30;5.53;;;4.27;;
7669;SDS011;3877;42.562;27.636;2023-11-19T08:55:56;10.27;;;4.10;;
7669;SDS011;3877;42.562;27.636;2023-11-19T08:58:23;8.27;;;4.30;;
7669;SDS011;3877;42.562;27.636;2023-11-19T09:00:52;5.73;;;4.43;;
7669;SDS011;3877;42.562;27.636;2023-11-19T09:03:19;8.77;;;4.30;;
7669;SDS011;3877;42.562;27.636;2023-11-19T09:05:46;6.53;;;5.10;;
7669;SDS011;3877;42.562;27.636;2023-11-19T09:08:13;6.23;;;4.60;;
7669;SDS011;3877;42.562;27.636;2023-11-19T09:10:40;5.43;;;4.27;;
7669;SDS011;3877;42.562;27.636;2023-11-19T09:13:07;8.20;;;5.13;;
7669;SDS011;3877;42.562;27.636;2023-11-19T09:15:34;10.70;;;4.67;;
7669;SDS011;3877;42.562;27.636;2023-11-19T09:18:02;6.57;;;3.93;;
7669;SDS011;3877;42.562;27.636;2023-11-19T09:20:30;5.90;;;4.47;;
7669;SDS011;3877;42.562;27.636;2023-11-19T09:23:02;11.30;;;5.50;;
7669;SDS011;3877;42.562;27.636;2023-11-19T09:25:30;7.73;;;5.50;;
7669;SDS011;3877;42.562;27.636;2023-11-19T09:27:57;6.80;;;5.03;;
7669;SDS011;3877;42.562;27.636;2023-11-19T09:30:24;7.17;;;4.70;;
7669;SDS011;3877;42.562;27.636;2023-11-19T09:32:51;6.47;;;4.30;;
7669;SDS011;3877;42.562;27.636;2023-11-19T09:35:19;7.43;;;4.37;;
7669;SDS011;3877;42.562;27.636;2023-11-19T09:37:46;4.77;;;4.00;;
7669;SDS011;3877;42.562;27.636;2023-11-19T09:40:13;6.97;;;4.93;;
7669;SDS011;3877;42.562;27.636;2023-11-19T09:42:42;8.23;;;5.27;;
7669;SDS011;3877;42.562;27.636;2023-11-19T09:45:10;7.07;;;4.33;;
7669;SDS011;3877;42.562;27.636;2023-11-19T09:47:39;7.63;;;5.37;;
7669;SDS011;3877;42.562;27.636;2023-11-19T09:50:06;9.40;;;5.30;;
7669;SDS011;3877;42.562;27.636;2023-11-19T09:52:34;7.10;;;5.63;;
7669;SDS011;3877;42.562;27.636;2023-11-19T09:55:01;6.37;;;5.23;;
7669;SDS011;3877;42.562;27.636;2023-11-19T09:57:29;8.40;;;5.47;;
7669;SDS011;3877;42.562;27.636;2023-11-19T09:59:58;6.67;;;5.13;;
7669;SDS011;3877;42.562;27.636;2023-11-19T10:02:25;6.33;;;4.67;;
7669;SDS011;3877;42.562;27.636;2023-11-19T10:04:53;9.33;;;5.60;;
7669;SDS011;3877;42.562;27.636;2023-11-19T10:07:21;7.70;;;5.03;;
7669;SDS011;3877;42.562;27.636;2023-11-19T10:09:49;7.27;;;5.40;;
7669;SDS011;3877;42.562;27.636;2023-11-19T10:12:16;9.30;;;5.70;;
7669;SDS011;3877;42.562;27.636;2023-11-19T10:14:43;6.30;;;4.57;;
7669;SDS011;3877;42.562;27.636;2023-11-19T10:17:10;7.27;;;4.43;;
7669;SDS011;3877;42.562;27.636;2023-11-19T10:19:39;6.77;;;5.03;;
7669;SDS011;3877;42.562;27.636;2023-11-19T10:22:07;9.07;;;4.50;;
7669;SDS011;3877;42.562;27.636;2023-11-19T10:24:34;5.33;;;4.13;;
7669;SDS011;3877;42.562;27.636;2023-11-19T10:27:05;5.10;;;4.23;;
7669;SDS011;3877;42.562;27.636;2023-11-19T10:29:36;5.73;;;3.63;;
7669;SDS011;3877;42.562;27.636;2023-11-19T10:32:03;4.43;;;3.43;;
7669;SDS011;3877;42.562;27.636;2023-11-19T10:34:30;5.97;;;3.67;;
7669;SDS011;3877;42.562;27.636;2023-11-19T10:36:57;6.00;;;4.10;;
7669;SDS011;3877;42.562;27.636;2023-11-19T10:39:24;8.33;;;4.67;;
7669;SDS011;3877;42.562;27.636;2023-11-19T10:41:57;5.83;;;3.90;;
7669;SDS011;3877;42.562;27.636;2023-11-19T10:44:33;5.27;;;3.80;;
7669;SDS011;3877;42.562;27.636;2023-11-19T10:47:01;6.43;;;3.73;;
7669;SDS011;3877;42.562;27.636;2023-11-19T10:49:28;5.93;;;4.30;;
7669;SDS011;3877;42.562;27.636;2023-11-19T10:51:55;4.53;;;3.40;;
7669;SDS011;3877;42.562;27.636;2023-11-19T10:54:22;7.63;;;4.03;;
7669;SDS011;3877;42.562;27.636;2023-11-19T10:56:53;7.80;;;4.20;;
7669;SDS011;3877;42.562;27.636;2023-11-19T10:59:21;7.37;;;4.20;;
7669;SDS011;3877;42.562;27.636;2023-11-19T11:01:50;5.23;;;3.90;;
7669;SDS011;3877;42.562;27.636;2023-11-19T11:04:22;6.07;;;4.30;;
7669;SDS011;3877;42.562;27.636;2023-11-19T11:06:49;5.23;;;3.70;;
7669;SDS011;3877;42.562;27.636;2023-11-19T11:09:17;4.10;;;3.43;;
7669;SDS011;3877;42.562;27.636;2023-11-19T11:11:44;7.27;;;4.80;;
7669;SDS011;3877;42.562;27.636;2023-11-19T11:14:13;9.40;;;5.03;;
7669;SDS011;3877;42.562;27.636;2023-11-19T11:16:41;6.80;;;4.27;;
7669;SDS011;3877;42.562;27.636;2023-11-19T11:19:10;7.93;;;5.37;;
7669;SDS011;3877;42.562;27.636;2023-11-19T11:21:38;7.93;;;4.87;;
7669;SDS011;3877;42.562;27.636;2023-11-19T11:26:59;7.93;;;5.50;;
7669;SDS011;3877;42.562;27.636;2023-11-19T11:29:32;7.07;;;5.07;;
7669;SDS011;3877;42.562;27.636;2023-11-19T11:32:04;7.30;;;5.60;;
7669;SDS011;3877;42.562;27.636;2023-11-19T11:34:44;10.07;;;6.10;;
7669;SDS011;3877;42.562;27.636;2023-11-19T11:37:17;9.63;;;5.67;;
7669;SDS011;3877;42.562;27.636;2023-11-19T11:39:45;7.00;;;5.53;;
7669;SDS011;3877;42.562;27.636;2023-11-19T11:42:32;8.93;;;5.63;;
7669;SDS011;3877;42.562;27.636;2023-11-19T11:44:59;6.17;;;4.97;;
7669;SDS011;3877;42.562;27.636;2023-11-19T11:47:38;5.73;;;4.40;;
7669;SDS011;3877;42.562;27.636;2023-11-19T11:50:27;6.97;;;4.67;;
7669;SDS011;3877;42.562;27.636;2023-11-19T11:55:51;7.30;;;5.63;;
7669;SDS011;3877;42.562;27.636;2023-11-19T11:58:20;8.03;;;5.33;;
7669;SDS011;3877;42.562;27.636;2023-11-19T12:00:47;5.53;;;4.43;;
7669;SDS011;3877;42.562;27.636;2023-11-19T12:03:16;6.07;;;4.27;;
7669;SDS011;3877;42.562;27.636;2023-11-19T12:05:47;6.90;;;4.73;;
7669;SDS011;3877;42.562;27.636;2023-11-19T12:08:15;6.40;;;5.33;;
7669;SDS011;3877;42.562;27.636;2023-11-19T12:10:43;4.43;;;3.80;;
7669;SDS011;3877;42.562;27.636;2023-11-19T12:13:11;5.50;;;4.60;;
7669;SDS011;3877;42.562;27.636;2023-11-19T12:18:20;4.93;;;4.43;;
7669;SDS011;3877;42.562;27.636;2023-11-19T12:20:48;6.33;;;4.77;;
7669;SDS011;3877;42.562;27.636;2023-11-19T12:23:15;5.57;;;4.53;;
7669;SDS011;3877;42.562;27.636;2023-11-19T12:25:42;6.03;;;5.00;;
7669;SDS011;3877;42.562;27.636;2023-11-19T12:28:11;6.27;;;4.60;;
7669;SDS011;3877;42.562;27.636;2023-11-19T12:30:38;7.17;;;5.17;;
7669;SDS011;3877;42.562;27.636;2023-11-19T12:33:07;7.10;;;5.30;;
7669;SDS011;3877;42.562;27.636;2023-11-19T12:35:35;7.23;;;4.63;;
7669;SDS011;3877;42.562;27.636;2023-11-19T12:38:06;9.90;;;6.90;;
7669;SDS011;3877;42.562;27.636;2023-11-19T12:40:33;7.43;;;5.73;;
7669;SDS011;3877;42.562;27.636;2023-11-19T12:43:00;6.97;;;5.43;;
7669;SDS011;3877;42.562;27.636;2023-11-19T12:45:34;8.33;;;4.80;;
7669;SDS011;3877;42.562;27.636;2023-11-19T12:48:04;10.00;;;5.93;;
7669;SDS011;3877;42.562;27.636;2023-11-19T12:50:34;12.50;;;6.90;;
7669;SDS011;3877;42.562;27.636;2023-11-19T12:53:18;11.33;;;7.47;;
7669;SDS011;3877;42.562;27.636;2023-11-19T12:55:44;11.43;;;6.97;;
7669;SDS011;3877;42.562;27.636;2023-11-19T13:00:58;6.47;;;5.27;;
7669;SDS011;3877;42.562;27.636;2023-11-19T13:03:29;7.03;;;5.37;;
7669;SDS011;3877;42.562;27.636;2023-11-19T13:06:01;6.17;;;5.30;;
7669;SDS011;3877;42.562;27.636;2023-11-19T13:08:35;6.10;;;4.40;;
7669;SDS011;3877;42.562;27.636;2023-11-19T13:11:03;5.40;;;4.53;;
7669;SDS011;3877;42.562;27.636;2023-11-19T13:13:30;6.17;;;4.13;;
7669;SDS011;3877;42.562;27.636;2023-11-19T13:16:01;7.90;;;5.30;;
7669;SDS011;3877;42.562;27.636;2023-11-19T13:18:29;7.17;;;5.13;;
7669;SDS011;3877;42.562;27.636;2023-11-19T13:20:56;5.50;;;4.63;;
7669;SDS011;3877;42.562;27.636;2023-11-19T13:23:23;6.10;;;5.17;;
7669;SDS011;3877;42.562;27.636;2023-11-19T13:25:51;7.77;;;5.77;;
7669;SDS011;3877;42.562;27.636;2023-11-19T13:28:18;6.83;;;5.97;;
7669;SDS011;3877;42.562;27.636;2023-11-19T13:30:45;6.07;;;5.20;;
7669;SDS011;3877;42.562;27.636;2023-11-19T13:33:12;7.70;;;5.70;;
7669;SDS011;3877;42.562;27.636;2023-11-19T13:35:39;9.37;;;5.17;;
7669;SDS011;3877;42.562;27.636;2023-11-19T13:38:06;7.23;;;5.23;;
7669;SDS011;3877;42.562;27.636;2023-11-19T13:40:34;6.20;;;5.00;;
7669;SDS011;3877;42.562;27.636;2023-11-19T13:43:02;8.60;;;5.13;;
7669;SDS011;3877;42.562;27.636;2023-11-19T13:45:29;5.73;;;4.57;;
7669;SDS011;3877;42.562;27.636;2023-11-19T13:47:56;6.77;;;5.40;;
7669;SDS011;3877;42.562;27.636;2023-11-19T13:50:23;6.43;;;5.03;;
7669;SDS011;3877;42.562;27.636;2023-11-19T13:52:50;6.43;;;4.67;;
7669;SDS011;3877;42.562;27.636;2023-11-19T13:55:17;12.97;;;5.13;;
7669;SDS011;3877;42.562;27.636;2023-11-19T13:57:43;6.27;;;5.10;;
7669;SDS011;3877;42.562;27.636;2023-11-19T14:00:13;6.90;;;4.73;;
7669;SDS011;3877;42.562;27.636;2023-11-19T14:02:41;5.40;;;4.37;;
7669;SDS011;3877;42.562;27.636;2023-11-19T14:05:08;5.50;;;4.37;;
7669;SDS011;3877;42.562;27.636;2023-11-19T14:07:36;6.63;;;4.90;;
7669;SDS011;3877;42.562;27.636;2023-11-19T14:10:02;6.00;;;4.70;;
7669;SDS011;3877;42.562;27.636;2023-11-19T14:12:30;5.73;;;4.50;;
7669;SDS011;3877;42.562;27.636;2023-11-19T14:14:57;7.10;;;5.57;;
7669;SDS011;3877;42.562;27.636;2023-11-19T14:17:26;7.23;;;5.63;;
7669;SDS011;3877;42.562;27.636;2023-11-19T14:19:53;5.97;;;5.03;;
7669;SDS011;3877;42.562;27.636;2023-11-19T14:22:20;5.00;;;4.50;;
7669;SDS011;3877;42.562;27.636;2023-11-19T14:24:47;4.50;;;4.10;;
7669;SDS011;3877;42.562;27.636;2023-11-19T14:27:14;7.87;;;4.93;;
7669;SDS011;3877;42.562;27.636;2023-11-19T14:29:42;8.83;;;5.47;;
7669;SDS011;3877;42.562;27.636;2023-11-19T14:32:10;10.97;;;4.90;;
7669;SDS011;3877;42.562;27.636;2023-11-19T14:34:38;5.27;;;4.00;;
7669;SDS011;3877;42.562;27.636;2023-11-19T14:37:05;4.17;;;3.73;;
7669;SDS011;3877;42.562;27.636;2023-11-19T14:39:32;5.63;;;3.93;;
7669;SDS011;3877;42.562;27.636;2023-11-19T14:41:59;5.90;;;3.90;;
7669;SDS011;3877;42.562;27.636;2023-11-19T14:44:29;5.20;;;4.33;;
7669;SDS011;3877;42.562;27.636;2023-11-19T14:46:56;9.03;;;3.80;;
7669;SDS011;3877;42.562;27.636;2023-11-19T14:49:23;6.93;;;5.20;;
7669;SDS011;3877;42.562;27.636;2023-11-19T14:51:52;10.30;;;6.20;;
7669;SDS011;3877;42.562;27.636;2023-11-19T14:54:19;8.63;;;6.03;;
7669;SDS011;3877;42.562;27.636;2023-11-19T14:56:46;8.33;;;6.30;;
7669;SDS011;3877;42.562;27.636;2023-11-19T14:59:13;4.80;;;4.30;;
7669;SDS011;3877;42.562;27.636;2023-11-19T15:01:40;8.27;;;6.13;;
7669;SDS011;3877;42.562;27.636;2023-11-19T15:04:07;7.53;;;4.80;;
7669;SDS011;3877;42.562;27.636;2023-11-19T15:06:34;4.70;;;4.10;;
7669;SDS011;3877;42.562;27.636;2023-11-19T15:09:03;3.90;;;3.50;;
7669;SDS011;3877;42.562;27.636;2023-11-19T15:11:30;5.57;;;3.97;;
7669;SDS011;3877;42.562;27.636;2023-11-19T15:13:58;4.13;;;3.63;;
7669;SDS011;3877;42.562;27.636;2023-11-19T15:16:25;6.83;;;4.73;;
7669;SDS011;3877;42.562;27.636;2023-11-19T15:18:56;6.33;;;4.80;;
7669;SDS011;3877;42.562;27.636;2023-11-19T15:21:25;13.03;;;5.90;;
7669;SDS011;3877;42.562;27.636;2023-11-19T15:23:52;7.53;;;5.57;;
7669;SDS011;3877;42.562;27.636;2023-11-19T15:26:21;6.90;;;5.30;;
7669;SDS011;3877;42.562;27.636;2023-11-19T15:28:48;6.23;;;5.07;;
7669;SDS011;3877;42.562;27.636;2023-11-19T15:31:15;6.20;;;4.70;;
7669;SDS011;3877;42.562;27.636;2023-11-19T15:33:42;7.67;;;4.67;;
7669;SDS011;3877;42.562;27.636;2023-11-19T15:36:09;8.80;;;5.60;;
7669;SDS011;3877;42.562;27.636;2023-11-19T15:38:36;7.33;;;5.30;;
7669;SDS011;3877;42.562;27.636;2023-11-19T15:41:03;10.93;;;7.27;;
7669;SDS011;3877;42.562;27.636;2023-11-19T15:43:34;9.10;;;6.27;;
7669;SDS011;3877;42.562;27.636;2023-11-19T15:46:01;11.53;;;6.30;;
7669;SDS011;3877;42.562;27.636;2023-11-19T15:48:31;10.17;;;6.53;;
7669;SDS011;3877;42.562;27.636;2023-11-19T15:50:58;9.07;;;4.93;;
7669;SDS011;3877;42.562;27.636;2023-11-19T15:53:25;7.87;;;4.70;;
7669;SDS011;3877;42.562;27.636;2023-11-19T15:55:52;9.60;;;4.60;;
7669;SDS011;3877;42.562;27.636;2023-11-19T15:58:19;10.00;;;5.43;;
7669;SDS011;3877;42.562;27.636;2023-11-19T16:00:49;8.20;;;5.37;;
7669;SDS011;3877;42.562;27.636;2023-11-19T16:03:16;8.63;;;5.60;;
7669;SDS011;3877;42.562;27.636;2023-11-19T16:05:42;11.37;;;8.17;;
7669;SDS011;3877;42.562;27.636;2023-11-19T16:08:10;10.47;;;8.13;;
7669;SDS011;3877;42.562;27.636;2023-11-19T16:10:37;16.20;;;7.83;;
7669;SDS011;3877;42.562;27.636;2023-11-19T16:13:08;14.53;;;10.47;;
7669;SDS011;3877;42.562;27.636;2023-11-19T16:15:35;14.73;;;10.30;;
7669;SDS011;3877;42.562;27.636;2023-11-19T16:18:03;7.90;;;6.47;;
7669;SDS011;3877;42.562;27.636;2023-11-19T16:20:30;13.00;;;9.53;;
7669;SDS011;3877;42.562;27.636;2023-11-19T16:22:59;11.23;;;8.10;;
7669;SDS011;3877;42.562;27.636;2023-11-19T16:25:26;13.67;;;9.57;;
7669;SDS011;3877;42.562;27.636;2023-11-19T16:27:53;12.07;;;9.53;;
7669;SDS011;3877;42.562;27.636;2023-11-19T16:30:21;9.27;;;7.10;;
7669;SDS011;3877;42.562;27.636;2023-11-19T16:32:51;6.93;;;5.03;;
7669;SDS011;3877;42.562;27.636;2023-11-19T16:35:21;8.60;;;5.40;;
7669;SDS011;3877;42.562;27.636;2023-11-19T16:37:49;6.97;;;5.13;;
7669;SDS011;3877;42.562;27.636;2023-11-19T16:40:16;7.40;;;5.27;;
7669;SDS011;3877;42.562;27.636;2023-11-19T16:42:43;8.43;;;5.83;;
7669;SDS011;3877;42.562;27.636;2023-11-19T16:45:11;11.67;;;7.43;;
7669;SDS011;3877;42.562;27.636;2023-11-19T16:47:38;12.00;;;6.63;;
7669;SDS011;3877;42.562;27.636;2023-11-19T16:50:05;12.77;;;7.37;;
7669;SDS011;3877;42.562;27.636;2023-11-19T16:52:35;9.80;;;7.33;;
7669;SDS011;3877;42.562;27.636;2023-11-19T16:55:01;11.70;;;7.80;;
7669;SDS011;3877;42.562;27.636;2023-11-19T16:57:31;14.10;;;8.57;;
7669;SDS011;3877;42.562;27.636;2023-11-19T16:59:59;8.50;;;6.40;;
7669;SDS011;3877;42.562;27.636;2023-11-19T17:02:25;6.60;;;5.40;;
7669;SDS011;3877;42.562;27.636;2023-11-19T17:04:53;7.00;;;5.50;;
7669;SDS011;3877;42.562;27.636;2023-11-19T17:07:20;6.23;;;5.10;;
7669;SDS011;3877;42.562;27.636;2023-11-19T17:09:52;6.20;;;5.23;;
7669;SDS011;3877;42.562;27.636;2023-11-19T17:12:19;6.57;;;5.67;;
7669;SDS011;3877;42.562;27.636;2023-11-19T17:14:46;7.80;;;6.47;;
7669;SDS011;3877;42.562;27.636;2023-11-19T17:17:13;8.63;;;6.40;;
7669;SDS011;3877;42.562;27.636;2023-11-19T17:19:40;7.47;;;6.40;;
7669;SDS011;3877;42.562;27.636;2023-11-19T17:22:07;9.77;;;7.50;;
7669;SDS011;3877;42.562;27.636;2023-11-19T17:24:34;10.60;;;8.40;;
7669;SDS011;3877;42.562;27.636;2023-11-19T17:27:03;13.80;;;9.97;;
7669;SDS011;3877;42.562;27.636;2023-11-19T17:29:31;15.53;;;10.73;;
7669;SDS011;3877;42.562;27.636;2023-11-19T17:31:58;17.07;;;10.27;;
7669;SDS011;3877;42.562;27.636;2023-11-19T17:34:24;13.23;;;9.70;;
7669;SDS011;3877;42.562;27.636;2023-11-19T17:36:52;16.20;;;8.97;;
7669;SDS011;3877;42.562;27.636;2023-11-19T17:39:18;13.40;;;9.60;;
7669;SDS011;3877;42.562;27.636;2023-11-19T17:41:45;11.97;;;8.70;;
7669;SDS011;3877;42.562;27.636;2023-11-19T17:44:14;11.53;;;8.60;;
7669;SDS011;3877;42.562;27.636;2023-11-19T17:46:41;10.63;;;8.40;;
7669;SDS011;3877;42.562;27.636;2023-11-19T17:49:08;9.03;;;7.33;;
7669;SDS011;3877;42.562;27.636;2023-11-19T17:51:35;11.07;;;7.23;;
7669;SDS011;3877;42.562;27.636;2023-11-19T17:54:02;10.50;;;8.10;;
7669;SDS011;3877;42.562;27.636;2023-11-19T17:56:29;9.57;;;7.50;;
7669;SDS011;3877;42.562;27.636;2023-11-19T17:58:56;13.77;;;8.23;;
7669;SDS011;3877;42.562;27.636;2023-11-19T18:01:24;11.10;;;8.27;;
7669;SDS011;3877;42.562;27.636;2023-11-19T18:03:51;11.90;;;9.43;;
7669;SDS011;3877;42.562;27.636;2023-11-19T18:06:18;11.03;;;8.00;;
7669;SDS011;3877;42.562;27.636;2023-11-19T18:08:45;7.90;;;6.50;;
7669;SDS011;3877;42.562;27.636;2023-11-19T18:11:14;9.00;;;6.93;;
7669;SDS011;3877;42.562;27.636;2023-11-19T18:13:41;7.67;;;5.70;;
7669;SDS011;3877;42.562;27.636;2023-11-19T18:16:08;8.90;;;7.20;;
7669;SDS011;3877;42.562;27.636;2023-11-19T18:18:39;12.40;;;8.20;;
7669;SDS011;3877;42.562;27.636;2023-11-19T18:21:06;11.37;;;8.53;;
7669;SDS011;3877;42.562;27.636;2023-11-19T18:23:33;14.07;;;8.50;;
7669;SDS011;3877;42.562;27.636;2023-11-19T18:26:00;16.77;;;13.47;;
7669;SDS011;3877;42.562;27.636;2023-11-19T18:28:28;13.87;;;10.60;;
7669;SDS011;3877;42.562;27.636;2023-11-19T18:30:55;12.80;;;8.17;;
7669;SDS011;3877;42.562;27.636;2023-11-19T18:33:22;15.63;;;10.07;;
7669;SDS011;3877;42.562;27.636;2023-11-19T18:35:50;16.33;;;10.83;;
7669;SDS011;3877;42.562;27.636;2023-11-19T18:38:17;13.10;;;9.00;;
7669;SDS011;3877;42.562;27.636;2023-11-19T18:40:44;11.27;;;7.80;;
7669;SDS011;3877;42.562;27.636;2023-11-19T18:43:11;16.63;;;11.07;;
7669;SDS011;3877;42.562;27.636;2023-11-19T18:45:39;13.80;;;9.70;;
7669;SDS011;3877;42.562;27.636;2023-11-19T18:48:06;27.40;;;17.27;;
7669;SDS011;3877;42.562;27.636;2023-11-19T18:50:33;17.40;;;12.27;;
7669;SDS011;3877;42.562;27.636;2023-11-19T18:53:02;14.60;;;9.80;;
7669;SDS011;3877;42.562;27.636;2023-11-19T18:55:29;15.30;;;10.30;;
7669;SDS011;3877;42.562;27.636;2023-11-19T18:57:56;13.70;;;9.90;;
7669;SDS011;3877;42.562;27.636;2023-11-19T19:00:23;20.93;;;13.87;;
7669;SDS011;3877;42.562;27.636;2023-11-19T19:02:51;17.10;;;12.20;;
7669;SDS011;3877;42.562;27.636;2023-11-19T19:05:18;12.13;;;8.40;;
7669;SDS011;3877;42.562;27.636;2023-11-19T19:07:45;15.20;;;9.83;;
7669;SDS011;3877;42.562;27.636;2023-11-19T19:10:13;17.67;;;11.03;;
7669;SDS011;3877;42.562;27.636;2023-11-19T19:12:40;13.23;;;8.77;;
7669;SDS011;3877;42.562;27.636;2023-11-19T19:15:09;15.23;;;10.30;;
7669;SDS011;3877;42.562;27.636;2023-11-19T19:17:37;25.73;;;12.63;;
7669;SDS011;3877;42.562;27.636;2023-11-19T19:20:05;22.87;;;14.10;;
7669;SDS011;3877;42.562;27.636;2023-11-19T19:22:32;16.97;;;10.57;;
7669;SDS011;3877;42.562;27.636;2023-11-19T19:24:59;15.50;;;10.17;;
7669;SDS011;3877;42.562;27.636;2023-11-19T19:27:28;14.13;;;8.07;;
7669;SDS011;3877;42.562;27.636;2023-11-19T19:29:56;11.97;;;7.50;;
7669;SDS011;3877;42.562;27.636;2023-11-19T19:32:23;8.17;;;6.23;;
7669;SDS011;3877;42.562;27.636;2023-11-19T19:34:50;7.90;;;6.00;;
7669;SDS011;3877;42.562;27.636;2023-11-19T19:37:17;6.23;;;4.90;;
7669;SDS011;3877;42.562;27.636;2023-11-19T19:39:44;9.03;;;5.87;;
7669;SDS011;3877;42.562;27.636;2023-11-19T19:42:11;10.33;;;6.20;;
7669;SDS011;3877;42.562;27.636;2023-11-19T19:44:41;7.17;;;5.30;;
7669;SDS011;3877;42.562;27.636;2023-11-19T19:47:08;7.83;;;5.67;;
7669;SDS011;3877;42.562;27.636;2023-11-19T19:49:35;5.77;;;4.97;;
7669;SDS011;3877;42.562;27.636;2023-11-19T19:52:02;12.20;;;7.27;;
7669;SDS011;3877;42.562;27.636;2023-11-19T19:54:29;9.67;;;6.10;;
7669;SDS011;3877;42.562;27.636;2023-11-19T19:56:57;10.23;;;5.67;;
7669;SDS011;3877;42.562;27.636;2023-11-19T19:59:24;6.63;;;5.33;;
7669;SDS011;3877;42.562;27.636;2023-11-19T20:01:53;7.83;;;5.83;;
7669;SDS011;3877;42.562;27.636;2023-11-19T20:04:20;10.23;;;5.50;;
7669;SDS011;3877;42.562;27.636;2023-11-19T20:06:47;6.40;;;5.13;;
7669;SDS011;3877;42.562;27.636;2023-11-19T20:09:15;8.17;;;5.13;;
7669;SDS011;3877;42.562;27.636;2023-11-19T20:11:42;6.37;;;5.23;;
7669;SDS011;3877;42.562;27.636;2023-11-19T20:14:13;8.70;;;5.97;;
7669;SDS011;3877;42.562;27.636;2023-11-19T20:16:40;7.63;;;6.30;;
7669;SDS011;3877;42.562;27.636;2023-11-19T20:19:08;9.47;;;5.90;;
7669;SDS011;3877;42.562;27.636;2023-11-19T20:21:35;8.80;;;6.50;;
7669;SDS011;3877;42.562;27.636;2023-11-19T20:24:02;11.27;;;6.90;;
7669;SDS011;3877;42.562;27.636;2023-11-19T20:26:31;9.80;;;7.30;;
7669;SDS011;3877;42.562;27.636;2023-11-19T20:28:58;14.97;;;6.20;;
7669;SDS011;3877;42.562;27.636;2023-11-19T20:31:25;7.97;;;5.80;;
7669;SDS011;3877;42.562;27.636;2023-11-19T20:33:52;12.47;;;6.63;;
7669;SDS011;3877;42.562;27.636;2023-11-19T20:36:21;17.40;;;6.80;;
7669;SDS011;3877;42.562;27.636;2023-11-19T20:38:48;12.93;;;6.57;;
7669;SDS011;3877;42.562;27.636;2023-11-19T20:41:17;8.53;;;6.13;;
7669;SDS011;3877;42.562;27.636;2023-11-19T20:43:44;10.37;;;6.90;;
7669;SDS011;3877;42.562;27.636;2023-11-19T20:46:10;13.60;;;6.27;;
7669;SDS011;3877;42.562;27.636;2023-11-19T20:48:37;7.20;;;6.13;;
7669;SDS011;3877;42.562;27.636;2023-11-19T20:51:05;12.97;;;6.80;;
7669;SDS011;3877;42.562;27.636;2023-11-19T20:53:34;13.23;;;7.30;;
7669;SDS011;3877;42.562;27.636;2023-11-19T20:56:01;8.67;;;6.30;;
7669;SDS011;3877;42.562;27.636;2023-11-19T20:58:28;12.57;;;6.87;;
7669;SDS011;3877;42.562;27.636;2023-11-19T21:00:55;8.07;;;5.80;;
7669;SDS011;3877;42.562;27.636;2023-11-19T21:03:21;8.50;;;5.53;;